• Join FlightAware (Why Join?)
  • Login
  • US Flag 
06:30PM EST


 

Airport Tracker/Info


-or-


 

Live Flight TrackerFlight Track Log ✈ CSH851 ✈ 29-Dec-2013 ✈ ZSSS / SHA - RCSS / TSA

Flight Track Log - Related Links

Times and Time Zones

All times are in EST time to prevent confusion due to time zone crossing. See the CSH851 flight status page for this flight to view local times or setup timezone preferences in your user account.

Time Position Orientation Groundspeed Altitude Reporting Facility
EST Latitude Longitude Course Direction KTS MPH feet Rate Location/Type
08:31PM 30.0746 121.3777 178° South  Level Estimated
08:32PM 29.9725 121.3814 178° South  Level Estimated
08:33PM 29.8704 121.3851 178° South  Level Estimated
08:34PM 29.7828 121.3883 178° South  Level Estimated
08:35PM 29.6953 121.3915 178° South  Level Estimated
08:36PM 29.6078 121.3946 178° South  Level Estimated
08:37PM 29.5202 121.3978 178° South  Level Estimated
08:38PM 29.4327 121.4009 178° South  Level Estimated
08:39PM 29.3452 121.4041 178° South  Level Estimated
08:40PM 29.2577 121.4072 178° South  Level Estimated
08:41PM 29.1701 121.4104 178° South  Level Estimated
08:42PM 29.0826 121.4135 178° South  Level Estimated
08:43PM 28.9951 121.4166 178° South  Level Estimated
08:44PM 28.9075 121.4197 178° South  Level Estimated
08:45PM 28.8200 121.4228 178° South  Level Estimated
08:46PM 28.7325 121.4259 178° South  Level Estimated
08:47PM 28.6449 121.4290 178° South  Level Estimated
08:48PM 28.5574 121.4322 178° South  Level Estimated
08:49PM 28.4699 121.4352 178° South  Level Estimated
08:50PM 28.3824 121.4383 178° South  Level Estimated
08:51PM 28.2948 121.4414 178° South  Level Estimated
08:52PM 28.2073 121.4445 178° South  Level Estimated
08:53PM 28.1198 121.4476 178° South  Level Estimated
08:54PM 28.0322 121.4506 178° South  Level Estimated
08:55PM 27.9447 121.4537 178° South  Level Estimated
08:56PM 27.8572 121.4567 178° South  Level Estimated
08:57PM 27.7696 121.4598 178° South  Level Estimated
08:58PM 27.6821 121.4629 178° South  Level Estimated
08:59PM 27.5946 121.4659 178° South  Level Estimated
09:00PM 27.5070 121.4689 178° South  Level Estimated
09:01PM 27.4195 121.4720 178° South  Level Estimated
09:02PM 27.3320 121.4750 178° South  Level Estimated
09:03PM 27.2445 121.4780 178° South  Level Estimated
09:04PM 27.1569 121.4810 178° South  Level Estimated
09:05PM 27.0694 121.4840 178° South  Level Estimated
09:06PM 26.9819 121.4871 178° South  Level Estimated
09:07PM 26.8943 121.4901 178° South  Level Estimated
09:08PM 26.8068 121.4930 178° South  Level Estimated
09:09PM 26.7193 121.4960 178° South  Level Estimated
09:10PM 26.6318 121.4990 178° South  Level Estimated
09:11PM 26.5442 121.5020 178° South  Level Estimated
09:12PM 26.4567 121.5050 178° South  Level Estimated
09:13PM 26.3692 121.5080 178° South  Level Estimated
09:14PM 26.2816 121.5110 178° South  Level Estimated
09:15PM 26.1941 121.5139 178° South  Level Estimated
09:16PM 26.1282 121.5162 178° South  Level Estimated
09:17PM 26.0623 121.5184 178° South  Level Estimated
09:18PM 25.9965 121.5206 178° South  Level Estimated
09:19PM 25.9306 121.5228 178° South  Level Estimated
09:20PM 25.8647 121.5251 178° South  Level Estimated
09:21PM 25.7988 121.5273 178° South  Level Estimated
09:22PM 25.7329 121.5295 178° South  Level Estimated
09:23PM 25.6671 121.5317 178° South  Level Estimated
09:24PM 25.6012 121.5339 178° South  Level Estimated
09:25PM 25.5353 121.5361 178° South  Level Estimated
09:26PM 25.4694 121.5383 178° South  Level Estimated
09:27PM 25.4035 121.5405 178° South  Level Estimated
09:28PM 25.3377 121.5427 178° South  Level Estimated
09:29PM 25.2718 121.5449 178° South  Level Estimated
09:30PM 25.2059 121.5471 178° South  Level Estimated
09:31PM 25.1400 121.5493 178° South  Level Estimated
09:32PM 25.0741 121.5515 178° South  Level Estimated
09:33PM 25.0694 121.5517 178° South  Level Estimated
09:34PM 25.0694 121.5517 326° Northwest  Level Estimated
09:35PM 25.0694 121.5517 326° Northwest  Level Estimated
09:36PM 25.0694 121.5517 326° Northwest  Level Estimated
09:37PM 25.0694 121.5517 326° Northwest  Level Estimated
09:38PM 25.0694 121.5517 326° Northwest  Level Estimated
09:39PM 25.0694 121.5517 326° Northwest  Level Estimated
09:40PM 25.0694 121.5517 326° Northwest  Level Estimated
09:41PM 25.0694 121.5517 326° Northwest  Level Estimated
09:42PM 25.0694 121.5517 326° Northwest  Level Estimated
09:43PM 25.0694 121.5517 326° Northwest  Level Estimated
09:44PM 25.0694 121.5517 326° Northwest  Level Estimated
09:45PM 25.0694 121.5517 326° Northwest  Level Estimated
09:46PM 25.0694 121.5517 326° Northwest  Level Estimated
09:47PM 25.0694 121.5517 326° Northwest  Level Estimated
09:48PM 25.0694 121.5517 326° Northwest  Level Estimated
09:49PM 25.0694 121.5517 326° Northwest  Level Estimated
09:50PM 25.0694 121.5517 326° Northwest  Level Estimated
09:51PM 25.0694 121.5517 326° Northwest  Level Estimated
09:52PM 25.0694 121.5517 326° Northwest  Level Estimated
09:53PM 25.0694 121.5517 326° Northwest  Level Estimated
09:54PM 25.0694 121.5517 326° Northwest  Level Estimated
09:55PM 25.0694 121.5517 326° Northwest  Level Estimated
09:56PM 25.0694 121.5517 326° Northwest  Level Estimated
09:57PM 25.0694 121.5517 326° Northwest  Level Estimated
09:58PM 25.0694 121.5517 326° Northwest  Level Estimated
09:59PM 25.0694 121.5517 326° Northwest  Level Estimated
10:00PM 25.0694 121.5517 326° Northwest  Level Estimated
10:01PM 25.0694 121.5517 326° Northwest  Level Estimated
10:02PM 25.0694 121.5517 326° Northwest  Level Estimated
10:03PM 25.0694 121.5517 326° Northwest  Level Estimated
10:04PM 25.0694 121.5517 326° Northwest  Level Estimated
10:05PM 25.0694 121.5517 326° Northwest  Level Estimated